SIA403 VIDP-WSSS
Flight info
| Callsign | SIA403 |
|---|---|
| Flight time | N/A |
| Altitude | 37000 |
| Route | ITBAN7H ITBAN L759 BBS/N0494F390 L759 PUT B579 VPL W531 VIH A464 VKL Y507 MAKNA Y511 TOPOR A464 ARAMA ARAMA1A |
| Aircraft | A388/J-SADE2E3FGHIJ3J4J5M1RWXY/LB1D1 |
Departure
| Time | 2026-05-06 17:53 |
|---|---|
| Airport | Indira Gandhi International Airport (VIDP) |
Arrival
| Time | N/A |
|---|---|
| Airport | Singapore Changi Airport (WSSS) |
| Time | Latitude | Longitude | Altitude | Speed | Heading |
|---|---|---|---|---|---|
| 2026-05-06 17:26 | 28.55604 | 77.08102 | 750 ft | 0 kts | 144° |
| 2026-05-06 17:38 | 28.55609 | 77.08098 | 723 ft | 4 kts | 148° |
| 2026-05-06 17:39 | 28.55634 | 77.08087 | 747 ft | 4 kts | 176° |
| 2026-05-06 17:39 | 28.55660 | 77.08087 | 745 ft | 4 kts | 179° |
| 2026-05-06 17:39 | 28.55672 | 77.08086 | 745 ft | 1 kts | 175° |
| 2026-05-06 17:44 | 28.55664 | 77.08086 | 745 ft | 5 kts | 193° |
| 2026-05-06 17:44 | 28.55648 | 77.08058 | 745 ft | 7 kts | 258° |
| 2026-05-06 17:44 | 28.55637 | 77.08001 | 748 ft | 12 kts | 257° |
| 2026-05-06 17:45 | 28.55622 | 77.07903 | 747 ft | 8 kts | 261° |
| 2026-05-06 17:45 | 28.55619 | 77.07891 | 747 ft | 0 kts | 239° |
| 2026-05-06 17:45 | 28.55592 | 77.07854 | 748 ft | 5 kts | 199° |
| 2026-05-06 17:45 | 28.55514 | 77.07834 | 746 ft | 25 kts | 192° |
| 2026-05-06 17:46 | 28.55341 | 77.07788 | 746 ft | 26 kts | 193° |
| 2026-05-06 17:46 | 28.55165 | 77.07737 | 749 ft | 24 kts | 194° |
| 2026-05-06 17:46 | 28.55046 | 77.07742 | 746 ft | 11 kts | 107° |
| 2026-05-06 17:46 | 28.55022 | 77.07832 | 750 ft | 13 kts | 105° |
| 2026-05-06 17:47 | 28.54998 | 77.07937 | 746 ft | 15 kts | 105° |
| 2026-05-06 17:47 | 28.54970 | 77.08055 | 746 ft | 16 kts | 105° |
| 2026-05-06 17:47 | 28.54940 | 77.08182 | 747 ft | 17 kts | 105° |
| 2026-05-06 17:47 | 28.54910 | 77.08318 | 749 ft | 18 kts | 104° |
| 2026-05-06 17:48 | 28.54879 | 77.08459 | 749 ft | 19 kts | 103° |
| 2026-05-06 17:48 | 28.54848 | 77.08605 | 748 ft | 19 kts | 104° |
| 2026-05-06 17:48 | 28.54806 | 77.08776 | 750 ft | 25 kts | 106° |
| 2026-05-06 17:48 | 28.54760 | 77.08962 | 749 ft | 24 kts | 105° |
| 2026-05-06 17:49 | 28.54720 | 77.09141 | 751 ft | 23 kts | 104° |
| 2026-05-06 17:49 | 28.54681 | 77.09318 | 748 ft | 23 kts | 104° |
| 2026-05-06 17:49 | 28.54643 | 77.09489 | 749 ft | 22 kts | 104° |
| 2026-05-06 17:49 | 28.54604 | 77.09658 | 752 ft | 22 kts | 104° |
| 2026-05-06 17:50 | 28.54564 | 77.09825 | 749 ft | 22 kts | 104° |
| 2026-05-06 17:50 | 28.54529 | 77.09990 | 753 ft | 21 kts | 102° |
| 2026-05-06 17:50 | 28.54489 | 77.10151 | 754 ft | 21 kts | 105° |
| 2026-05-06 17:50 | 28.54452 | 77.10310 | 752 ft | 21 kts | 105° |
| 2026-05-06 17:51 | 28.54415 | 77.10468 | 754 ft | 21 kts | 105° |
| 2026-05-06 17:51 | 28.54376 | 77.10569 | 755 ft | 8 kts | 154° |
| 2026-05-06 17:51 | 28.54327 | 77.10569 | 755 ft | 6 kts | 194° |
| 2026-05-06 17:51 | 28.54302 | 77.10561 | 755 ft | 5 kts | 195° |
| 2026-05-06 17:52 | 28.54225 | 77.10525 | 769 ft | 7 kts | 250° |
| 2026-05-06 17:52 | 28.54240 | 77.10421 | 768 ft | 19 kts | 286° |
| 2026-05-06 17:52 | 28.54322 | 77.10046 | 761 ft | 87 kts | 284° |
| 2026-05-06 17:52 | 28.54520 | 77.09126 | 757 ft | 148 kts | 283° |
| 2026-05-06 17:53 | 28.54773 | 77.07850 | 872 ft | 172 kts | 284° |
| 2026-05-06 17:53 | 28.54970 | 77.06572 | 1559 ft | 163 kts | 280° |
| 2026-05-06 17:53 | 28.55188 | 77.05297 | 1985 ft | 172 kts | 282° |
| 2026-05-06 17:53 | 28.55203 | 77.03876 | 2228 ft | 191 kts | 257° |
| 2026-05-06 17:54 | 28.54522 | 77.02531 | 2398 ft | 207 kts | 221° |
| 2026-05-06 17:54 | 28.53178 | 77.01800 | 2559 ft | 228 kts | 189° |
| 2026-05-06 17:54 | 28.51539 | 77.01559 | 2864 ft | 249 kts | 185° |
| 2026-05-06 17:54 | 28.49737 | 77.01353 | 3188 ft | 271 kts | 185° |
| 2026-05-06 17:55 | 28.47829 | 77.01111 | 3780 ft | 277 kts | 187° |
| 2026-05-06 17:55 | 28.45938 | 77.00841 | 4545 ft | 278 kts | 188° |
| 2026-05-06 17:55 | 28.44016 | 77.00551 | 5343 ft | 278 kts | 189° |
| 2026-05-06 17:55 | 28.42099 | 77.00253 | 6152 ft | 278 kts | 190° |
| 2026-05-06 17:56 | 28.40175 | 76.99950 | 6879 ft | 280 kts | 191° |
| 2026-05-06 17:56 | 28.38228 | 76.99643 | 7580 ft | 284 kts | 191° |
| 2026-05-06 17:56 | 28.36261 | 76.99333 | 7938 ft | 286 kts | 191° |
| 2026-05-06 17:56 | 28.34277 | 76.99023 | 8023 ft | 289 kts | 192° |
| 2026-05-06 17:57 | 28.32279 | 76.98712 | 8007 ft | 290 kts | 191° |
| 2026-05-06 17:57 | 28.30288 | 76.98399 | 8009 ft | 288 kts | 191° |
| 2026-05-06 17:57 | 28.28336 | 76.98092 | 8003 ft | 287 kts | 191° |
| 2026-05-06 17:57 | 28.26360 | 76.97782 | 8005 ft | 287 kts | 191° |
| 2026-05-06 17:58 | 28.24359 | 76.97592 | 8030 ft | 291 kts | 182° |
| 2026-05-06 17:58 | 28.22331 | 76.97824 | 8344 ft | 296 kts | 174° |
| 2026-05-06 17:58 | 28.20293 | 76.98179 | 9087 ft | 296 kts | 176° |
| 2026-05-06 17:58 | 28.18244 | 76.98507 | 9825 ft | 299 kts | 177° |
| 2026-05-06 17:59 | 28.16151 | 76.98829 | 10317 ft | 311 kts | 177° |
| 2026-05-06 17:59 | 28.13934 | 76.99166 | 10494 ft | 332 kts | 176° |
| 2026-05-06 17:59 | 28.11612 | 76.99755 | 10661 ft | 356 kts | 161° |
| 2026-05-06 17:59 | 28.09507 | 77.01275 | 11089 ft | 372 kts | 139° |
| 2026-05-06 18:00 | 28.07902 | 77.03605 | 11660 ft | 380 kts | 121° |
| 2026-05-06 18:00 | 28.06671 | 77.06279 | 12225 ft | 386 kts | 116° |
| 2026-05-06 18:00 | 28.05514 | 77.09039 | 12812 ft | 390 kts | 115° |
| 2026-05-06 18:00 | 28.04314 | 77.11813 | 13435 ft | 394 kts | 116° |
| 2026-05-06 18:01 | 28.03057 | 77.14593 | 13995 ft | 398 kts | 116° |
| 2026-05-06 18:01 | 28.01762 | 77.17372 | 14578 ft | 401 kts | 117° |
| 2026-05-06 18:01 | 28.00441 | 77.20166 | 15154 ft | 403 kts | 116° |
| 2026-05-06 18:01 | 27.99270 | 77.23060 | 15704 ft | 406 kts | 112° |
| 2026-05-06 18:02 | 27.98151 | 77.25961 | 16258 ft | 410 kts | 112° |
| 2026-05-06 18:02 | 27.97002 | 77.28920 | 16812 ft | 413 kts | 112° |
| 2026-05-06 18:02 | 27.95840 | 77.31902 | 17355 ft | 416 kts | 112° |
| 2026-05-06 18:02 | 27.94668 | 77.34909 | 17886 ft | 419 kts | 112° |
| 2026-05-06 18:03 | 27.93490 | 77.37937 | 18355 ft | 422 kts | 111° |
| 2026-05-06 18:03 | 27.92471 | 77.41061 | 18769 ft | 425 kts | 108° |
| 2026-05-06 18:03 | 27.91481 | 77.44217 | 19221 ft | 428 kts | 108° |
| 2026-05-06 18:03 | 27.90476 | 77.47400 | 19654 ft | 431 kts | 108° |
| 2026-05-06 18:04 | 27.89461 | 77.50600 | 20082 ft | 434 kts | 108° |
| 2026-05-06 18:04 | 27.88450 | 77.53784 | 20497 ft | 438 kts | 108° |
| 2026-05-06 18:04 | 27.87417 | 77.57034 | 20930 ft | 441 kts | 108° |
| 2026-05-06 18:04 | 27.86377 | 77.60303 | 21371 ft | 443 kts | 108° |
| 2026-05-06 18:05 | 27.85333 | 77.63583 | 21834 ft | 445 kts | 109° |
| 2026-05-06 18:05 | 27.84279 | 77.66889 | 22215 ft | 449 kts | 109° |
| 2026-05-06 18:05 | 27.82917 | 77.70072 | 22588 ft | 453 kts | 123° |
| 2026-05-06 18:05 | 27.80918 | 77.72819 | 23036 ft | 454 kts | 138° |
| 2026-05-06 18:06 | 27.78472 | 77.74993 | 23411 ft | 454 kts | 147° |
| 2026-05-06 18:06 | 27.75886 | 77.77064 | 23768 ft | 456 kts | 148° |
| 2026-05-06 18:06 | 27.73151 | 77.78863 | 24121 ft | 455 kts | 157° |
| 2026-05-06 18:06 | 27.70224 | 77.80199 | 24490 ft | 453 kts | 166° |
| 2026-05-06 18:07 | 27.67186 | 77.81102 | 24852 ft | 453 kts | 171° |
| 2026-05-06 18:07 | 27.64119 | 77.81952 | 25234 ft | 455 kts | 170° |
| 2026-05-06 18:07 | 27.61039 | 77.82823 | 25639 ft | 457 kts | 170° |
| 2026-05-06 18:07 | 27.57949 | 77.83703 | 26050 ft | 460 kts | 170° |
| 2026-05-06 18:08 | 27.54879 | 77.84577 | 26466 ft | 462 kts | 170° |
| 2026-05-06 18:08 | 27.51752 | 77.85466 | 26865 ft | 465 kts | 170° |
| 2026-05-06 18:08 | 27.48605 | 77.86360 | 27292 ft | 468 kts | 170° |
| 2026-05-06 18:08 | 27.45442 | 77.87256 | 27733 ft | 470 kts | 170° |
| 2026-05-06 18:09 | 27.42252 | 77.88160 | 28170 ft | 473 kts | 170° |
| 2026-05-06 18:09 | 27.39052 | 77.89065 | 28606 ft | 476 kts | 170° |
| 2026-05-06 18:09 | 27.35824 | 77.89979 | 29051 ft | 479 kts | 170° |
| 2026-05-06 18:09 | 27.32588 | 77.90893 | 29492 ft | 482 kts | 170° |
| 2026-05-06 18:10 | 27.29323 | 77.91816 | 29920 ft | 485 kts | 170° |
| 2026-05-06 18:10 | 27.26078 | 77.92732 | 30280 ft | 489 kts | 170° |
| 2026-05-06 18:10 | 27.22768 | 77.93666 | 30562 ft | 493 kts | 171° |
| 2026-05-06 18:10 | 27.19434 | 77.94648 | 30896 ft | 499 kts | 167° |
| 2026-05-06 18:11 | 27.16171 | 77.96064 | 31271 ft | 507 kts | 159° |
| 2026-05-06 18:11 | 27.14091 | 77.97291 | 31488 ft | 513 kts | 153° |
| 2026-05-06 18:11 | 27.10155 | 78.00411 | 31917 ft | 522 kts | 146° |
| 2026-05-06 18:11 | 27.07273 | 78.02924 | 32233 ft | 526 kts | 146° |
| 2026-05-06 18:12 | 27.04409 | 78.05399 | 32554 ft | 529 kts | 146° |
| 2026-05-06 18:12 | 27.01477 | 78.07923 | 32862 ft | 533 kts | 146° |
| 2026-05-06 18:12 | 26.98523 | 78.10460 | 33185 ft | 536 kts | 146° |
| 2026-05-06 18:12 | 26.95558 | 78.13005 | 33490 ft | 539 kts | 147° |
| 2026-05-06 18:13 | 26.92571 | 78.15568 | 33825 ft | 542 kts | 147° |
| 2026-05-06 18:13 | 26.89567 | 78.18144 | 34098 ft | 545 kts | 147° |
| 2026-05-06 18:13 | 26.86549 | 78.20730 | 34421 ft | 546 kts | 147° |
| 2026-05-06 18:13 | 26.83534 | 78.23313 | 34821 ft | 546 kts | 147° |
| 2026-05-06 18:14 | 26.80555 | 78.25864 | 35249 ft | 545 kts | 147° |
| 2026-05-06 18:14 | 26.77544 | 78.28440 | 35655 ft | 545 kts | 147° |
| 2026-05-06 18:14 | 26.74534 | 78.31013 | 36081 ft | 544 kts | 147° |
| 2026-05-06 18:14 | 26.71532 | 78.33578 | 36495 ft | 543 kts | 147° |
| 2026-05-06 18:15 | 26.68526 | 78.36143 | 36861 ft | 543 kts | 147° |
| 2026-05-06 18:15 | 26.65513 | 78.38712 | 36996 ft | 545 kts | 147° |
| 2026-05-06 18:15 | 26.59488 | 78.43846 | 37004 ft | 544 kts | 147° |
| 2026-05-06 18:16 | 26.53500 | 78.48941 | 37007 ft | 545 kts | 147° |
| 2026-05-06 18:16 | 26.47473 | 78.54062 | 37016 ft | 544 kts | 147° |
| 2026-05-06 18:17 | 26.41447 | 78.59176 | 37011 ft | 544 kts | 147° |
| 2026-05-06 18:17 | 26.35439 | 78.64269 | 37012 ft | 542 kts | 148° |
| 2026-05-06 18:18 | 26.29441 | 78.69345 | 37030 ft | 541 kts | 148° |
| 2026-05-06 18:18 | 26.23477 | 78.74385 | 37004 ft | 541 kts | 148° |
| 2026-05-06 18:19 | 26.17497 | 78.79433 | 37002 ft | 541 kts | 148° |
| 2026-05-06 18:19 | 26.11490 | 78.84468 | 36977 ft | 540 kts | 149° |
| 2026-05-06 18:20 | 26.05444 | 78.89441 | 36996 ft | 541 kts | 149° |
| 2026-05-06 18:20 | 25.99431 | 78.94386 | 36999 ft | 542 kts | 149° |
| 2026-05-06 18:21 | 25.93367 | 78.99376 | 37018 ft | 543 kts | 149° |
| 2026-05-06 18:21 | 25.87293 | 79.04371 | 37021 ft | 544 kts | 149° |
| 2026-05-06 18:22 | 25.81211 | 79.09367 | 37028 ft | 543 kts | 149° |
| 2026-05-06 18:22 | 25.75138 | 79.14346 | 37024 ft | 543 kts | 149° |
| 2026-05-06 18:23 | 25.69103 | 79.19288 | 37022 ft | 543 kts | 149° |
| 2026-05-06 18:23 | 25.63030 | 79.24256 | 37018 ft | 542 kts | 149° |
| 2026-05-06 18:24 | 25.56959 | 79.29215 | 37014 ft | 542 kts | 149° |
| 2026-05-06 18:24 | 25.51914 | 79.33332 | 36993 ft | 542 kts | 149° |
| 2026-05-06 18:25 | 25.44860 | 79.39079 | 37003 ft | 542 kts | 149° |
| 2026-05-06 18:25 | 25.38775 | 79.44031 | 37021 ft | 543 kts | 149° |
| 2026-05-06 18:26 | 25.32689 | 79.48976 | 37022 ft | 543 kts | 149° |
| 2026-05-06 18:26 | 25.26641 | 79.53886 | 36973 ft | 543 kts | 149° |
| 2026-05-06 18:27 | 25.21550 | 79.58014 | 37007 ft | 542 kts | 149° |
| 2026-05-06 18:27 | 25.14476 | 79.63740 | 37009 ft | 542 kts | 149° |
| 2026-05-06 18:28 | 25.09414 | 79.67833 | 37010 ft | 543 kts | 149° |
| 2026-05-06 18:28 | 25.03324 | 79.72753 | 37006 ft | 543 kts | 149° |
| 2026-05-06 18:29 | 24.96237 | 79.78470 | 37010 ft | 543 kts | 149° |
| 2026-05-06 18:29 | 24.90145 | 79.83378 | 37017 ft | 542 kts | 149° |
| 2026-05-06 18:30 | 24.85081 | 79.87453 | 37012 ft | 542 kts | 149° |
| 2026-05-06 18:30 | 24.78431 | 79.93809 | 37007 ft | 551 kts | 137° |
| 2026-05-06 18:31 | 24.73501 | 80.00301 | 37002 ft | 553 kts | 134° |
| 2026-05-06 18:31 | 24.69421 | 80.05719 | 36992 ft | 553 kts | 134° |
| 2026-05-06 18:32 | 24.64510 | 80.12216 | 37000 ft | 552 kts | 134° |
| 2026-05-06 18:32 | 24.59595 | 80.18708 | 37010 ft | 552 kts | 134° |
| 2026-05-06 18:33 | 24.54684 | 80.25187 | 37009 ft | 552 kts | 134° |
| 2026-05-06 18:33 | 24.49803 | 80.31618 | 37016 ft | 552 kts | 134° |
| 2026-05-06 18:34 | 24.44889 | 80.38083 | 37016 ft | 552 kts | 134° |
| 2026-05-06 18:34 | 24.39970 | 80.44547 | 36986 ft | 552 kts | 135° |
| 2026-05-06 18:35 | 24.35053 | 80.51001 | 37018 ft | 552 kts | 135° |
| 2026-05-06 18:35 | 24.30175 | 80.57393 | 37029 ft | 551 kts | 135° |
| 2026-05-06 18:36 | 24.25254 | 80.63834 | 37030 ft | 551 kts | 135° |
| 2026-05-06 18:36 | 24.20329 | 80.70271 | 37029 ft | 551 kts | 135° |
| 2026-05-06 18:37 | 24.15410 | 80.76693 | 37026 ft | 550 kts | 135° |
| 2026-05-06 18:37 | 24.10519 | 80.83068 | 36984 ft | 550 kts | 135° |
| 2026-05-06 18:38 | 24.05608 | 80.89464 | 37019 ft | 549 kts | 135° |
| 2026-05-06 18:38 | 24.00692 | 80.95855 | 37026 ft | 548 kts | 135° |
| 2026-05-06 18:39 | 23.95779 | 81.02235 | 37020 ft | 548 kts | 135° |
| 2026-05-06 18:40 | 23.88440 | 81.11750 | 37022 ft | 548 kts | 135° |
| 2026-05-06 18:40 | 23.83524 | 81.18113 | 37020 ft | 548 kts | 135° |
| 2026-05-06 18:41 | 23.78608 | 81.24467 | 37016 ft | 548 kts | 135° |
| 2026-05-06 18:41 | 23.73678 | 81.30832 | 37028 ft | 549 kts | 135° |
| 2026-05-06 18:42 | 23.68774 | 81.37156 | 37029 ft | 550 kts | 135° |
| 2026-05-06 18:42 | 23.63837 | 81.43513 | 37033 ft | 550 kts | 135° |
| 2026-05-06 18:43 | 23.58882 | 81.49886 | 37030 ft | 550 kts | 135° |
| 2026-05-06 18:43 | 23.53927 | 81.56250 | 37041 ft | 550 kts | 135° |
| 2026-05-06 18:44 | 23.49017 | 81.62551 | 37044 ft | 548 kts | 135° |
| 2026-05-06 18:44 | 23.44078 | 81.68879 | 37052 ft | 547 kts | 135° |
| 2026-05-06 18:45 | 23.39149 | 81.75187 | 37052 ft | 546 kts | 135° |
| 2026-05-06 18:45 | 23.34238 | 81.81463 | 37047 ft | 546 kts | 135° |
| 2026-05-06 18:46 | 23.29364 | 81.87683 | 37038 ft | 545 kts | 135° |
| 2026-05-06 18:46 | 23.24437 | 81.93965 | 37038 ft | 545 kts | 135° |
| 2026-05-06 18:47 | 23.19519 | 82.00225 | 37036 ft | 544 kts | 135° |
| 2026-05-06 18:47 | 23.14637 | 82.06435 | 37034 ft | 544 kts | 135° |
| 2026-05-06 18:48 | 23.09718 | 82.12683 | 37033 ft | 544 kts | 135° |
| 2026-05-06 18:48 | 23.04806 | 82.18949 | 37036 ft | 545 kts | 134° |
| 2026-05-06 18:49 | 23.00004 | 82.25335 | 37043 ft | 546 kts | 134° |
| 2026-05-06 18:49 | 22.95201 | 82.31731 | 37041 ft | 547 kts | 134° |
| 2026-05-06 18:50 | 22.90411 | 82.38068 | 37056 ft | 547 kts | 134° |
| 2026-05-06 18:50 | 22.85586 | 82.44435 | 37055 ft | 546 kts | 134° |
| 2026-05-06 18:51 | 22.80761 | 82.50794 | 37049 ft | 546 kts | 134° |
| 2026-05-06 18:51 | 22.75940 | 82.57141 | 37043 ft | 545 kts | 134° |
| 2026-05-06 18:52 | 22.71152 | 82.63437 | 37040 ft | 545 kts | 134° |
| 2026-05-06 18:52 | 22.66339 | 82.69757 | 37038 ft | 544 kts | 134° |
| 2026-05-06 18:53 | 22.61523 | 82.76074 | 36995 ft | 544 kts | 134° |
| 2026-05-06 18:53 | 22.56712 | 82.82377 | 37053 ft | 542 kts | 134° |
| 2026-05-06 18:54 | 22.51920 | 82.88648 | 37039 ft | 541 kts | 134° |
| 2026-05-06 18:54 | 22.47159 | 82.94870 | 37034 ft | 540 kts | 134° |
| 2026-05-06 18:55 | 22.42373 | 83.01117 | 37024 ft | 539 kts | 134° |
| 2026-05-06 18:55 | 22.37587 | 83.07358 | 37021 ft | 539 kts | 134° |
| 2026-05-06 18:56 | 22.32804 | 83.13585 | 37021 ft | 539 kts | 134° |
| 2026-05-06 18:56 | 22.28057 | 83.19760 | 37048 ft | 537 kts | 134° |
| 2026-05-06 18:57 | 22.23292 | 83.25951 | 37036 ft | 536 kts | 134° |
| 2026-05-06 18:57 | 22.18533 | 83.32127 | 37026 ft | 534 kts | 134° |
| 2026-05-06 18:58 | 22.13875 | 83.38379 | 37019 ft | 535 kts | 132° |
| 2026-05-06 18:58 | 22.09316 | 83.44640 | 37014 ft | 534 kts | 132° |
| 2026-05-06 18:59 | 22.04664 | 83.50866 | 37004 ft | 532 kts | 134° |
| 2026-05-06 18:59 | 21.99876 | 83.56948 | 37015 ft | 532 kts | 135° |
| 2026-05-06 19:00 | 21.95101 | 83.63031 | 37020 ft | 531 kts | 134° |
| 2026-05-06 19:00 | 21.90374 | 83.69078 | 37011 ft | 531 kts | 134° |
| 2026-05-06 19:01 | 21.85612 | 83.75169 | 37011 ft | 531 kts | 134° |
| 2026-05-06 19:01 | 21.80849 | 83.81253 | 37017 ft | 532 kts | 134° |
| 2026-05-06 19:02 | 21.76082 | 83.87337 | 37019 ft | 532 kts | 134° |
| 2026-05-06 19:02 | 21.71313 | 83.93415 | 37040 ft | 531 kts | 134° |
| 2026-05-06 19:03 | 21.66578 | 83.99445 | 37032 ft | 531 kts | 134° |
| 2026-05-06 19:03 | 21.61861 | 84.05564 | 37031 ft | 531 kts | 134° |
| 2026-05-06 19:04 | 21.57160 | 84.11691 | 37038 ft | 531 kts | 134° |
| 2026-05-06 19:04 | 21.52453 | 84.17803 | 37029 ft | 531 kts | 134° |
| 2026-05-06 19:05 | 21.47773 | 84.23866 | 37039 ft | 531 kts | 134° |
| 2026-05-06 19:05 | 21.43060 | 84.29963 | 37036 ft | 530 kts | 134° |
| 2026-05-06 19:06 | 21.38353 | 84.36046 | 37034 ft | 530 kts | 134° |
| 2026-05-06 19:06 | 21.33651 | 84.42118 | 37047 ft | 528 kts | 134° |
| 2026-05-06 19:07 | 21.28989 | 84.48128 | 37032 ft | 527 kts | 134° |
| 2026-05-06 19:07 | 21.24297 | 84.54171 | 37027 ft | 527 kts | 134° |
| 2026-05-06 19:08 | 21.19609 | 84.60203 | 37023 ft | 526 kts | 134° |
| 2026-05-06 19:08 | 21.14922 | 84.66229 | 37023 ft | 526 kts | 134° |
| 2026-05-06 19:09 | 21.10267 | 84.72205 | 37034 ft | 526 kts | 134° |
| 2026-05-06 19:09 | 21.05585 | 84.78209 | 36997 ft | 525 kts | 134° |
| 2026-05-06 19:10 | 21.00907 | 84.84201 | 37018 ft | 524 kts | 134° |
| 2026-05-06 19:10 | 20.96224 | 84.90195 | 37015 ft | 525 kts | 134° |
| 2026-05-06 19:11 | 20.91541 | 84.96182 | 37018 ft | 525 kts | 134° |
| 2026-05-06 19:11 | 20.86886 | 85.02127 | 37024 ft | 525 kts | 134° |
| 2026-05-06 19:12 | 20.82195 | 85.08111 | 37019 ft | 525 kts | 134° |
| 2026-05-06 19:12 | 20.77506 | 85.14087 | 37015 ft | 525 kts | 134° |
| 2026-05-06 19:13 | 20.72846 | 85.20018 | 37030 ft | 523 kts | 134° |
| 2026-05-06 19:13 | 20.68171 | 85.25964 | 37033 ft | 522 kts | 134° |
| 2026-05-06 19:14 | 20.63513 | 85.31881 | 37021 ft | 521 kts | 134° |
| 2026-05-06 19:14 | 20.58849 | 85.37799 | 37014 ft | 521 kts | 134° |
| 2026-05-06 19:15 | 20.54218 | 85.43670 | 37013 ft | 520 kts | 134° |
| 2026-05-06 19:15 | 20.49562 | 85.49567 | 37015 ft | 519 kts | 134° |
| 2026-05-06 19:16 | 20.44907 | 85.55454 | 37011 ft | 519 kts | 134° |
| 2026-05-06 19:16 | 20.40251 | 85.61337 | 37003 ft | 519 kts | 134° |
| 2026-05-06 19:17 | 20.35630 | 85.67170 | 37020 ft | 518 kts | 134° |
| 2026-05-06 19:17 | 20.30976 | 85.73040 | 37025 ft | 518 kts | 134° |
| 2026-05-06 19:18 | 20.26323 | 85.78904 | 37028 ft | 518 kts | 134° |
| 2026-05-06 19:18 | 20.21373 | 85.84438 | 37025 ft | 515 kts | 140° |
| 2026-05-06 19:19 | 20.16239 | 85.89683 | 37024 ft | 515 kts | 140° |
| 2026-05-06 19:19 | 20.11079 | 85.94978 | 37022 ft | 515 kts | 140° |
| 2026-05-06 19:20 | 20.05920 | 86.00262 | 37036 ft | 514 kts | 140° |
| 2026-05-06 19:20 | 20.00767 | 86.05533 | 37028 ft | 514 kts | 140° |
| 2026-05-06 19:21 | 19.95654 | 86.10760 | 37016 ft | 513 kts | 140° |
| 2026-05-06 19:21 | 19.90517 | 86.16010 | 37012 ft | 512 kts | 140° |
| 2026-05-06 19:22 | 19.85454 | 86.21327 | 37019 ft | 512 kts | 139° |
| 2026-05-06 19:22 | 19.80413 | 86.26677 | 37015 ft | 512 kts | 139° |
| 2026-05-06 19:23 | 19.75368 | 86.32002 | 37005 ft | 511 kts | 139° |
| 2026-05-06 19:23 | 19.72868 | 86.34634 | 37216 ft | 514 kts | 139° |
| 2026-05-06 19:23 | 19.70336 | 86.37299 | 37708 ft | 512 kts | 139° |
| 2026-05-06 19:23 | 19.67813 | 86.39954 | 38208 ft | 510 kts | 139° |
| 2026-05-06 19:24 | 19.65293 | 86.42603 | 38627 ft | 509 kts | 139° |
| 2026-05-06 19:24 | 19.62763 | 86.45261 | 38798 ft | 513 kts | 139° |
| 2026-05-06 19:24 | 19.60249 | 86.47897 | 38824 ft | 505 kts | 139° |
| 2026-05-06 19:25 | 19.55240 | 86.53105 | 38826 ft | 505 kts | 139° |
| 2026-05-06 19:25 | 19.50244 | 86.58291 | 38826 ft | 506 kts | 139° |
| 2026-05-06 19:26 | 19.45218 | 86.63512 | 38825 ft | 506 kts | 139° |
| 2026-05-06 19:26 | 19.40195 | 86.68724 | 38846 ft | 504 kts | 139° |
| 2026-05-06 19:27 | 19.35192 | 86.73912 | 38823 ft | 503 kts | 139° |
| 2026-05-06 19:27 | 19.30200 | 86.79082 | 38815 ft | 501 kts | 139° |
| 2026-05-06 19:28 | 19.25257 | 86.84199 | 38807 ft | 500 kts | 139° |
| 2026-05-06 19:28 | 19.20284 | 86.89340 | 38799 ft | 499 kts | 139° |
| 2026-05-06 19:29 | 19.15322 | 86.94466 | 38794 ft | 498 kts | 139° |
| 2026-05-06 19:29 | 19.10365 | 86.99583 | 38791 ft | 498 kts | 139° |
| 2026-05-06 19:30 | 19.05451 | 87.04651 | 38796 ft | 497 kts | 139° |
| 2026-05-06 19:30 | 19.00520 | 87.09731 | 38793 ft | 496 kts | 139° |
| 2026-05-06 19:31 | 18.95573 | 87.14823 | 38799 ft | 497 kts | 139° |
| 2026-05-06 19:31 | 18.88174 | 87.22432 | 38808 ft | 498 kts | 139° |
| 2026-05-06 19:32 | 18.83200 | 87.27541 | 38819 ft | 499 kts | 139° |
| 2026-05-06 19:32 | 18.78213 | 87.32659 | 38821 ft | 501 kts | 139° |
| 2026-05-06 19:33 | 18.73211 | 87.37788 | 38832 ft | 502 kts | 139° |
| 2026-05-06 19:33 | 18.68228 | 87.42894 | 38842 ft | 503 kts | 139° |
| 2026-05-06 19:34 | 18.63204 | 87.48037 | 38852 ft | 503 kts | 139° |
| 2026-05-06 19:34 | 18.58178 | 87.53177 | 38845 ft | 503 kts | 140° |
| 2026-05-06 19:35 | 18.53150 | 87.58316 | 38844 ft | 503 kts | 140° |
| 2026-05-06 19:35 | 18.48129 | 87.63442 | 38841 ft | 503 kts | 140° |
| 2026-05-06 19:36 | 18.43140 | 87.68531 | 38832 ft | 502 kts | 140° |
| 2026-05-06 19:36 | 18.38133 | 87.73636 | 38847 ft | 500 kts | 140° |
| 2026-05-06 19:37 | 18.33136 | 87.78725 | 38837 ft | 499 kts | 140° |
| 2026-05-06 19:37 | 18.28153 | 87.83796 | 38840 ft | 498 kts | 140° |
| 2026-05-06 19:38 | 18.23248 | 87.88867 | 38817 ft | 497 kts | 139° |
| 2026-05-06 19:38 | 18.18331 | 87.93985 | 38814 ft | 497 kts | 139° |
| 2026-05-06 19:39 | 18.13415 | 87.99083 | 38834 ft | 496 kts | 139° |
| 2026-05-06 19:39 | 18.08494 | 88.04177 | 38830 ft | 496 kts | 139° |
| 2026-05-06 19:40 | 18.03603 | 88.09236 | 38823 ft | 497 kts | 139° |
| 2026-05-06 19:40 | 17.98675 | 88.14329 | 38815 ft | 498 kts | 139° |
| 2026-05-06 19:41 | 17.93729 | 88.19434 | 38824 ft | 499 kts | 139° |
| 2026-05-06 19:41 | 17.88771 | 88.24550 | 38837 ft | 500 kts | 139° |
| 2026-05-06 19:42 | 17.83838 | 88.29635 | 38842 ft | 501 kts | 139° |
| 2026-05-06 19:42 | 17.78866 | 88.34756 | 38836 ft | 501 kts | 139° |
| 2026-05-06 19:43 | 17.73890 | 88.39877 | 38843 ft | 501 kts | 139° |
| 2026-05-06 19:43 | 17.68919 | 88.44990 | 38847 ft | 500 kts | 139° |
| 2026-05-06 19:44 | 17.63986 | 88.50059 | 38837 ft | 500 kts | 140° |
| 2026-05-06 19:44 | 17.59022 | 88.55155 | 38838 ft | 499 kts | 140° |
| 2026-05-06 19:45 | 17.54061 | 88.60244 | 38836 ft | 499 kts | 140° |
| 2026-05-06 19:45 | 17.49133 | 88.65294 | 38824 ft | 499 kts | 140° |
| 2026-05-06 19:46 | 17.44178 | 88.70369 | 38830 ft | 498 kts | 140° |
| 2026-05-06 19:46 | 17.39221 | 88.75441 | 38814 ft | 498 kts | 140° |
| 2026-05-06 19:47 | 17.34274 | 88.80500 | 38838 ft | 497 kts | 140° |
| 2026-05-06 19:47 | 17.29332 | 88.85549 | 38836 ft | 496 kts | 140° |
| 2026-05-06 19:48 | 17.24419 | 88.90565 | 38814 ft | 497 kts | 140° |
| 2026-05-06 19:48 | 17.19472 | 88.95611 | 38821 ft | 497 kts | 140° |
| 2026-05-06 19:49 | 17.14550 | 89.00700 | 38829 ft | 498 kts | 139° |
| 2026-05-06 19:49 | 17.09638 | 89.05812 | 38828 ft | 498 kts | 139° |
| 2026-05-06 19:50 | 17.04719 | 89.10916 | 38827 ft | 499 kts | 139° |
| 2026-05-06 19:50 | 16.99834 | 89.15975 | 38846 ft | 497 kts | 139° |
| 2026-05-06 19:51 | 16.94921 | 89.21060 | 38843 ft | 497 kts | 139° |
| 2026-05-06 19:51 | 16.90006 | 89.26141 | 38830 ft | 497 kts | 139° |
| 2026-05-06 19:52 | 16.85099 | 89.31212 | 38829 ft | 497 kts | 139° |
| 2026-05-06 19:52 | 16.80218 | 89.36251 | 38829 ft | 497 kts | 139° |
| 2026-05-06 19:53 | 16.75306 | 89.41318 | 38824 ft | 497 kts | 139° |
| 2026-05-06 19:53 | 16.70389 | 89.46387 | 38825 ft | 497 kts | 139° |
| 2026-05-06 19:54 | 16.65473 | 89.51450 | 38829 ft | 496 kts | 138° |
| 2026-05-06 19:54 | 16.60592 | 89.56475 | 38831 ft | 496 kts | 138° |
| 2026-05-06 19:55 | 16.55676 | 89.61530 | 38831 ft | 496 kts | 138° |
| 2026-05-06 19:55 | 16.50759 | 89.66584 | 38831 ft | 496 kts | 138° |
| 2026-05-06 19:56 | 16.45840 | 89.71635 | 38830 ft | 496 kts | 138° |
| 2026-05-06 19:56 | 16.40956 | 89.76647 | 38828 ft | 496 kts | 139° |
| 2026-05-06 19:57 | 16.36034 | 89.81694 | 38829 ft | 496 kts | 139° |
| 2026-05-06 19:57 | 16.31120 | 89.86729 | 38837 ft | 495 kts | 138° |
| 2026-05-06 19:58 | 16.26209 | 89.91758 | 38836 ft | 495 kts | 138° |
| 2026-05-06 19:58 | 16.21336 | 89.96743 | 38830 ft | 495 kts | 138° |
| 2026-05-06 19:59 | 16.16427 | 90.01760 | 38823 ft | 494 kts | 138° |
| 2026-05-06 19:59 | 16.11526 | 90.06767 | 38820 ft | 494 kts | 138° |
| 2026-05-06 20:00 | 16.06624 | 90.11773 | 38824 ft | 494 kts | 138° |
| 2026-05-06 20:00 | 16.01754 | 90.16741 | 38823 ft | 494 kts | 138° |
| 2026-05-06 20:01 | 15.96897 | 90.21793 | 38838 ft | 494 kts | 136° |
| 2026-05-06 20:01 | 15.92079 | 90.26870 | 38833 ft | 493 kts | 136° |
| 2026-05-06 20:02 | 15.87256 | 90.31933 | 38834 ft | 493 kts | 137° |
| 2026-05-06 20:02 | 15.82465 | 90.36948 | 38830 ft | 492 kts | 137° |
| 2026-05-06 20:03 | 15.77640 | 90.41993 | 38823 ft | 492 kts | 136° |
| 2026-05-06 20:03 | 15.72814 | 90.47037 | 38821 ft | 492 kts | 136° |
| 2026-05-06 20:04 | 15.67986 | 90.52079 | 38823 ft | 492 kts | 136° |
| 2026-05-06 20:04 | 15.63190 | 90.57083 | 38833 ft | 492 kts | 136° |
| 2026-05-06 20:05 | 15.58375 | 90.62105 | 38847 ft | 490 kts | 136° |
| 2026-05-06 20:05 | 15.53565 | 90.67118 | 38839 ft | 489 kts | 136° |
| 2026-05-06 20:06 | 15.48767 | 90.72115 | 38830 ft | 488 kts | 136° |
| 2026-05-06 20:06 | 15.44008 | 90.77068 | 38823 ft | 488 kts | 136° |
| 2026-05-06 20:07 | 15.39228 | 90.82038 | 38830 ft | 486 kts | 136° |
| 2026-05-06 20:07 | 15.34454 | 90.87000 | 38823 ft | 486 kts | 136° |
| 2026-05-06 20:08 | 15.29689 | 90.91948 | 38820 ft | 485 kts | 136° |
| 2026-05-06 20:08 | 15.24925 | 90.96893 | 38815 ft | 485 kts | 136° |
| 2026-05-06 20:09 | 15.20192 | 91.01802 | 38815 ft | 485 kts | 136° |
| 2026-05-06 20:09 | 15.15422 | 91.06745 | 38818 ft | 485 kts | 136° |
| 2026-05-06 20:10 | 15.10651 | 91.11686 | 38819 ft | 486 kts | 136° |
| 2026-05-06 20:10 | 15.05903 | 91.16600 | 38823 ft | 486 kts | 136° |
| 2026-05-06 20:11 | 15.01120 | 91.21548 | 38828 ft | 486 kts | 136° |
| 2026-05-06 20:11 | 14.96335 | 91.26493 | 38830 ft | 487 kts | 136° |
| 2026-05-06 20:12 | 14.91541 | 91.31446 | 38832 ft | 487 kts | 136° |
| 2026-05-06 20:12 | 14.86748 | 91.36394 | 38833 ft | 487 kts | 136° |
| 2026-05-06 20:13 | 14.81992 | 91.41300 | 38830 ft | 487 kts | 136° |
| 2026-05-06 20:13 | 14.77199 | 91.46240 | 38829 ft | 486 kts | 136° |
| 2026-05-06 20:14 | 14.72409 | 91.51175 | 38829 ft | 486 kts | 136° |
| 2026-05-06 20:14 | 14.67619 | 91.56106 | 38823 ft | 486 kts | 136° |
| 2026-05-06 20:15 | 14.62864 | 91.60999 | 38823 ft | 486 kts | 136° |
| 2026-05-06 20:15 | 14.58071 | 91.65927 | 38822 ft | 486 kts | 136° |
| 2026-05-06 20:16 | 14.53280 | 91.70849 | 38820 ft | 486 kts | 136° |
| 2026-05-06 20:16 | 14.48514 | 91.75743 | 38823 ft | 486 kts | 136° |
| 2026-05-06 20:17 | 14.43752 | 91.80631 | 38824 ft | 486 kts | 136° |
| 2026-05-06 20:17 | 14.38953 | 91.85552 | 38824 ft | 486 kts | 136° |
| 2026-05-06 20:18 | 14.34154 | 91.90470 | 38826 ft | 486 kts | 136° |
| 2026-05-06 20:18 | 14.29354 | 91.95387 | 38819 ft | 487 kts | 136° |
| 2026-05-06 20:19 | 14.24579 | 92.00276 | 38819 ft | 487 kts | 136° |
| 2026-05-06 20:19 | 14.19832 | 92.05263 | 38812 ft | 487 kts | 135° |
| 2026-05-06 20:20 | 14.15103 | 92.10273 | 38819 ft | 488 kts | 135° |
| 2026-05-06 20:20 | 14.10360 | 92.15276 | 38823 ft | 488 kts | 135° |
| 2026-05-06 20:21 | 14.05642 | 92.20241 | 38824 ft | 488 kts | 135° |
| 2026-05-06 20:21 | 14.00886 | 92.25243 | 38824 ft | 488 kts | 135° |
| 2026-05-06 20:22 | 13.96134 | 92.30238 | 38823 ft | 488 kts | 135° |
| 2026-05-06 20:22 | 13.91360 | 92.35217 | 38822 ft | 488 kts | 136° |
| 2026-05-06 20:23 | 13.86514 | 92.40046 | 38818 ft | 488 kts | 137° |
| 2026-05-06 20:23 | 13.81640 | 92.44900 | 38818 ft | 488 kts | 136° |
| 2026-05-06 20:24 | 13.76780 | 92.49761 | 38818 ft | 488 kts | 136° |
| 2026-05-06 20:24 | 13.71919 | 92.54628 | 38817 ft | 487 kts | 136° |
| 2026-05-06 20:25 | 13.67091 | 92.59457 | 38814 ft | 487 kts | 136° |
| 2026-05-06 20:25 | 13.62230 | 92.64316 | 38816 ft | 487 kts | 136° |
| 2026-05-06 20:26 | 13.57365 | 92.69176 | 38812 ft | 488 kts | 136° |
| 2026-05-06 20:26 | 13.52497 | 92.74036 | 38814 ft | 488 kts | 136° |
| 2026-05-06 20:27 | 13.47658 | 92.78865 | 38817 ft | 488 kts | 136° |
| 2026-05-06 20:27 | 13.42783 | 92.83725 | 38823 ft | 488 kts | 136° |
| 2026-05-06 20:28 | 13.37915 | 92.88577 | 38822 ft | 488 kts | 136° |
| 2026-05-06 20:28 | 13.33042 | 92.93431 | 38822 ft | 488 kts | 136° |
| 2026-05-06 20:29 | 13.28201 | 92.98250 | 38821 ft | 488 kts | 136° |
| 2026-05-06 20:29 | 13.23329 | 93.03096 | 38822 ft | 488 kts | 136° |
| 2026-05-06 20:30 | 13.16018 | 93.10365 | 38814 ft | 488 kts | 136° |
| 2026-05-06 20:31 | 13.11171 | 93.15179 | 38814 ft | 488 kts | 136° |
| 2026-05-06 20:31 | 13.06299 | 93.20016 | 38823 ft | 488 kts | 136° |
| 2026-05-06 20:32 | 13.01423 | 93.24855 | 38818 ft | 488 kts | 136° |
| 2026-05-06 20:32 | 12.96550 | 93.29687 | 38817 ft | 487 kts | 136° |
| 2026-05-06 20:33 | 12.91675 | 93.34519 | 38818 ft | 487 kts | 136° |
| 2026-05-06 20:33 | 12.86834 | 93.39314 | 38816 ft | 487 kts | 136° |
| 2026-05-06 20:34 | 12.81964 | 93.44135 | 38813 ft | 487 kts | 136° |
| 2026-05-06 20:34 | 12.77090 | 93.48958 | 38813 ft | 487 kts | 136° |
| 2026-05-06 20:35 | 12.72222 | 93.53772 | 38817 ft | 487 kts | 136° |
| 2026-05-06 20:35 | 12.67384 | 93.58552 | 38815 ft | 486 kts | 136° |
| 2026-05-06 20:36 | 12.62519 | 93.63358 | 38811 ft | 486 kts | 136° |
| 2026-05-06 20:36 | 12.57679 | 93.68136 | 38812 ft | 486 kts | 136° |
| 2026-05-06 20:37 | 12.52809 | 93.72941 | 38816 ft | 486 kts | 136° |
| 2026-05-06 20:37 | 12.47938 | 93.77744 | 38812 ft | 486 kts | 136° |
| 2026-05-06 20:38 | 12.43099 | 93.82513 | 38801 ft | 487 kts | 136° |
| 2026-05-06 20:38 | 12.38223 | 93.87316 | 38805 ft | 487 kts | 136° |
| 2026-05-06 20:39 | 12.33346 | 93.92117 | 38824 ft | 486 kts | 136° |
| 2026-05-06 20:39 | 12.28479 | 93.96906 | 38824 ft | 485 kts | 136° |
| 2026-05-06 20:40 | 12.23650 | 94.01657 | 38819 ft | 484 kts | 136° |
| 2026-05-06 20:40 | 12.18810 | 94.06437 | 38814 ft | 484 kts | 135° |
| 2026-05-06 20:41 | 12.13993 | 94.11235 | 38815 ft | 483 kts | 135° |
| 2026-05-06 20:41 | 12.09179 | 94.16024 | 38811 ft | 483 kts | 135° |
| 2026-05-06 20:42 | 12.04395 | 94.20776 | 38789 ft | 483 kts | 135° |
| 2026-05-06 20:42 | 11.99568 | 94.25566 | 38831 ft | 483 kts | 135° |
| 2026-05-06 20:43 | 11.94753 | 94.30342 | 38832 ft | 482 kts | 135° |
| 2026-05-06 20:43 | 11.89952 | 94.35103 | 38831 ft | 481 kts | 135° |
| 2026-05-06 20:44 | 11.85186 | 94.39826 | 38816 ft | 480 kts | 135° |
| 2026-05-06 20:44 | 11.80649 | 94.44802 | 38810 ft | 478 kts | 130° |
| 2026-05-06 20:45 | 11.76294 | 94.49938 | 38809 ft | 478 kts | 130° |
| 2026-05-06 20:45 | 11.71936 | 94.55056 | 38806 ft | 478 kts | 130° |
| 2026-05-06 20:46 | 11.67575 | 94.60175 | 38796 ft | 478 kts | 130° |
| 2026-05-06 20:46 | 11.63234 | 94.65269 | 38803 ft | 479 kts | 130° |
| 2026-05-06 20:47 | 11.58856 | 94.70402 | 38809 ft | 480 kts | 130° |
| 2026-05-06 20:47 | 11.54472 | 94.75541 | 38828 ft | 481 kts | 130° |
| 2026-05-06 20:48 | 11.50080 | 94.80687 | 38831 ft | 481 kts | 130° |
| 2026-05-06 20:48 | 11.45711 | 94.85803 | 38832 ft | 482 kts | 130° |
| 2026-05-06 20:49 | 11.41310 | 94.90954 | 38827 ft | 482 kts | 130° |
| 2026-05-06 20:49 | 11.36907 | 94.96105 | 38807 ft | 482 kts | 130° |
| 2026-05-06 20:50 | 11.32498 | 95.01260 | 38804 ft | 483 kts | 131° |
| 2026-05-06 20:50 | 11.28122 | 95.06373 | 38809 ft | 484 kts | 131° |
| 2026-05-06 20:51 | 11.23696 | 95.11543 | 38814 ft | 485 kts | 131° |
| 2026-05-06 20:51 | 11.19263 | 95.16718 | 38828 ft | 485 kts | 131° |
| 2026-05-06 20:52 | 11.14829 | 95.21892 | 38826 ft | 485 kts | 131° |
| 2026-05-06 20:52 | 11.10422 | 95.27031 | 38806 ft | 485 kts | 131° |
| 2026-05-06 20:53 | 11.05983 | 95.32206 | 38825 ft | 485 kts | 131° |
| 2026-05-06 20:53 | 11.01548 | 95.37373 | 38808 ft | 485 kts | 131° |
| 2026-05-06 20:54 | 10.97107 | 95.42544 | 38814 ft | 485 kts | 131° |
| 2026-05-06 20:54 | 10.92671 | 95.47706 | 38827 ft | 484 kts | 131° |
| 2026-05-06 20:55 | 10.88266 | 95.52830 | 38804 ft | 485 kts | 131° |
| 2026-05-06 20:55 | 10.83832 | 95.57986 | 38804 ft | 484 kts | 131° |
| 2026-05-06 20:56 | 10.79400 | 95.63137 | 38806 ft | 484 kts | 131° |
| 2026-05-06 20:56 | 10.74997 | 95.68251 | 38798 ft | 484 kts | 131° |
| 2026-05-06 20:57 | 10.70567 | 95.73396 | 38823 ft | 483 kts | 131° |
| 2026-05-06 20:57 | 10.66135 | 95.78539 | 38820 ft | 483 kts | 131° |
| 2026-05-06 20:58 | 10.61694 | 95.83689 | 38833 ft | 484 kts | 131° |
| 2026-05-06 20:58 | 10.57255 | 95.88836 | 38831 ft | 484 kts | 131° |
| 2026-05-06 20:59 | 10.52839 | 95.93954 | 38797 ft | 485 kts | 131° |
| 2026-05-06 20:59 | 10.48390 | 95.99105 | 38793 ft | 485 kts | 131° |
| 2026-05-06 21:00 | 10.43943 | 96.04254 | 38800 ft | 485 kts | 131° |
| 2026-05-06 21:00 | 10.39493 | 96.09404 | 38821 ft | 485 kts | 131° |
| 2026-05-06 21:01 | 10.35073 | 96.14517 | 38828 ft | 484 kts | 131° |
| 2026-05-06 21:01 | 10.30633 | 96.19650 | 38819 ft | 484 kts | 131° |
| 2026-05-06 21:02 | 10.26189 | 96.24785 | 38813 ft | 484 kts | 131° |
| 2026-05-06 21:02 | 10.21752 | 96.29910 | 38814 ft | 483 kts | 131° |
| 2026-05-06 21:03 | 10.17322 | 96.35025 | 38800 ft | 483 kts | 131° |
| 2026-05-06 21:03 | 10.12916 | 96.40109 | 38794 ft | 483 kts | 131° |
| 2026-05-06 21:04 | 10.08478 | 96.45229 | 38795 ft | 483 kts | 131° |
| 2026-05-06 21:04 | 10.04025 | 96.50364 | 38772 ft | 486 kts | 131° |
| 2026-05-06 21:05 | 9.99495 | 96.55458 | 38781 ft | 487 kts | 136° |
| 2026-05-06 21:05 | 9.94551 | 96.60116 | 38798 ft | 489 kts | 137° |
| 2026-05-06 21:06 | 9.89554 | 96.64814 | 38812 ft | 491 kts | 137° |
| 2026-05-06 21:06 | 9.84546 | 96.69524 | 38816 ft | 492 kts | 137° |
| 2026-05-06 21:07 | 9.79527 | 96.74239 | 38832 ft | 492 kts | 137° |
| 2026-05-06 21:07 | 9.74538 | 96.78921 | 38816 ft | 492 kts | 137° |
| 2026-05-06 21:08 | 9.69516 | 96.83632 | 38814 ft | 492 kts | 137° |
| 2026-05-06 21:08 | 9.64490 | 96.88347 | 38792 ft | 492 kts | 137° |
| 2026-05-06 21:09 | 9.59462 | 96.93060 | 38791 ft | 493 kts | 138° |
| 2026-05-06 21:09 | 9.54465 | 96.97742 | 38810 ft | 493 kts | 138° |
| 2026-05-06 21:10 | 9.49431 | 97.02456 | 38808 ft | 493 kts | 137° |
| 2026-05-06 21:10 | 9.44393 | 97.07173 | 38811 ft | 493 kts | 137° |
| 2026-05-06 21:11 | 9.39355 | 97.11888 | 38810 ft | 493 kts | 138° |
| 2026-05-06 21:11 | 9.34357 | 97.16563 | 38818 ft | 492 kts | 137° |
| 2026-05-06 21:12 | 9.29335 | 97.21259 | 38811 ft | 491 kts | 137° |
| 2026-05-06 21:12 | 9.24318 | 97.25948 | 38810 ft | 490 kts | 137° |
| 2026-05-06 21:13 | 9.19312 | 97.30625 | 38792 ft | 490 kts | 137° |
| 2026-05-06 21:13 | 9.14342 | 97.35267 | 38788 ft | 489 kts | 137° |
| 2026-05-06 21:14 | 9.09347 | 97.39930 | 38812 ft | 489 kts | 138° |
| 2026-05-06 21:14 | 9.04346 | 97.44598 | 38792 ft | 489 kts | 138° |
| 2026-05-06 21:15 | 8.99353 | 97.49254 | 38803 ft | 488 kts | 137° |
| 2026-05-06 21:15 | 8.94469 | 97.53808 | 38804 ft | 488 kts | 137° |
| 2026-05-06 21:16 | 8.89478 | 97.58461 | 38797 ft | 488 kts | 137° |
| 2026-05-06 21:16 | 8.84476 | 97.63124 | 38780 ft | 489 kts | 139° |
| 2026-05-06 21:17 | 8.79451 | 97.67784 | 38790 ft | 491 kts | 138° |
| 2026-05-06 21:17 | 8.74413 | 97.72451 | 38797 ft | 492 kts | 138° |
| 2026-05-06 21:18 | 8.69399 | 97.77099 | 38812 ft | 493 kts | 138° |
| 2026-05-06 21:18 | 8.64343 | 97.81785 | 38819 ft | 493 kts | 139° |
| 2026-05-06 21:19 | 8.59286 | 97.86468 | 38826 ft | 492 kts | 138° |
| 2026-05-06 21:19 | 8.54271 | 97.91113 | 38816 ft | 492 kts | 138° |
| 2026-05-06 21:20 | 8.49232 | 97.95779 | 38806 ft | 491 kts | 138° |
| 2026-05-06 21:20 | 8.44194 | 98.00439 | 38804 ft | 491 kts | 139° |
| 2026-05-06 21:21 | 8.39162 | 98.05087 | 38801 ft | 490 kts | 139° |
| 2026-05-06 21:21 | 8.34131 | 98.09732 | 38799 ft | 490 kts | 138° |
| 2026-05-06 21:22 | 8.29131 | 98.14350 | 38803 ft | 490 kts | 139° |
| 2026-05-06 21:22 | 8.24095 | 98.18997 | 38837 ft | 490 kts | 138° |
| 2026-05-06 21:23 | 8.19063 | 98.23638 | 38845 ft | 490 kts | 138° |
| 2026-05-06 21:23 | 8.14069 | 98.28245 | 38842 ft | 490 kts | 138° |
| 2026-05-06 21:24 | 8.08934 | 98.32750 | 38821 ft | 489 kts | 141° |
| 2026-05-06 21:24 | 8.03649 | 98.37090 | 38808 ft | 490 kts | 142° |
| 2026-05-06 21:25 | 7.98367 | 98.41441 | 38810 ft | 491 kts | 141° |
| 2026-05-06 21:25 | 7.93069 | 98.45804 | 38807 ft | 492 kts | 141° |
| 2026-05-06 21:26 | 7.87791 | 98.50148 | 38817 ft | 493 kts | 142° |
| 2026-05-06 21:26 | 7.82476 | 98.54522 | 38819 ft | 494 kts | 141° |
| 2026-05-06 21:27 | 7.77155 | 98.58898 | 38810 ft | 494 kts | 142° |
| 2026-05-06 21:27 | 7.71834 | 98.63271 | 38813 ft | 494 kts | 141° |
| 2026-05-06 21:28 | 7.66549 | 98.67618 | 38827 ft | 493 kts | 141° |
| 2026-05-06 21:28 | 7.61232 | 98.71990 | 38827 ft | 493 kts | 141° |
| 2026-05-06 21:29 | 7.55911 | 98.76365 | 38808 ft | 494 kts | 141° |
| 2026-05-06 21:29 | 7.50591 | 98.80737 | 38823 ft | 494 kts | 142° |
| 2026-05-06 21:30 | 7.45311 | 98.85073 | 38831 ft | 492 kts | 142° |
| 2026-05-06 21:30 | 7.40003 | 98.89426 | 38826 ft | 491 kts | 142° |
| 2026-05-06 21:31 | 7.34709 | 98.93765 | 38804 ft | 491 kts | 141° |
| 2026-05-06 21:31 | 7.29418 | 98.98103 | 38817 ft | 490 kts | 141° |
| 2026-05-06 21:32 | 7.24173 | 99.02401 | 38805 ft | 489 kts | 142° |
| 2026-05-06 21:32 | 7.16256 | 99.08886 | 38792 ft | 489 kts | 141° |
| 2026-05-06 21:33 | 7.10981 | 99.13204 | 38767 ft | 492 kts | 141° |
| 2026-05-06 21:33 | 7.05670 | 99.17551 | 38784 ft | 493 kts | 141° |
| 2026-05-06 21:34 | 7.00374 | 99.21885 | 38786 ft | 495 kts | 141° |
| 2026-05-06 21:34 | 6.95024 | 99.26261 | 38806 ft | 496 kts | 141° |
| 2026-05-06 21:35 | 6.89662 | 99.30646 | 38815 ft | 497 kts | 141° |
| 2026-05-06 21:35 | 6.84285 | 99.35041 | 38819 ft | 498 kts | 141° |
| 2026-05-06 21:36 | 6.79812 | 99.38696 | 38819 ft | 498 kts | 141° |
| 2026-05-06 21:36 | 6.73569 | 99.43797 | 38841 ft | 496 kts | 141° |
| 2026-05-06 21:37 | 6.69125 | 99.47427 | 38853 ft | 494 kts | 141° |
| 2026-05-06 21:37 | 6.63800 | 99.51775 | 38840 ft | 492 kts | 141° |
| 2026-05-06 21:38 | 6.58498 | 99.56103 | 38838 ft | 490 kts | 141° |
| 2026-05-06 21:38 | 6.52357 | 99.61115 | 38816 ft | 488 kts | 141° |
| 2026-05-06 21:39 | 6.47981 | 99.64686 | 38788 ft | 488 kts | 141° |
| 2026-05-06 21:39 | 6.42679 | 99.68927 | 38790 ft | 486 kts | 142° |
| 2026-05-06 21:40 | 6.37333 | 99.73088 | 38791 ft | 485 kts | 142° |
| 2026-05-06 21:40 | 6.31990 | 99.77231 | 38794 ft | 485 kts | 142° |
| 2026-05-06 21:41 | 6.26624 | 99.81327 | 38793 ft | 484 kts | 143° |
| 2026-05-06 21:41 | 6.21301 | 99.85397 | 38761 ft | 484 kts | 142° |
| 2026-05-06 21:42 | 6.15942 | 99.89504 | 38775 ft | 484 kts | 142° |
| 2026-05-06 21:42 | 6.10573 | 99.93618 | 38767 ft | 486 kts | 142° |
| 2026-05-06 21:43 | 6.05223 | 99.97716 | 38781 ft | 487 kts | 142° |
| 2026-05-06 21:43 | 5.99820 | 100.01846 | 38800 ft | 489 kts | 142° |
| 2026-05-06 21:44 | 5.94377 | 100.05959 | 38794 ft | 491 kts | 143° |
| 2026-05-06 21:44 | 5.88914 | 100.10085 | 38814 ft | 492 kts | 142° |
| 2026-05-06 21:45 | 5.83443 | 100.14224 | 38819 ft | 492 kts | 142° |
| 2026-05-06 21:45 | 5.78004 | 100.18341 | 38808 ft | 493 kts | 142° |
| 2026-05-06 21:46 | 5.72531 | 100.22482 | 38820 ft | 492 kts | 142° |
| 2026-05-06 21:46 | 5.67064 | 100.26618 | 38809 ft | 492 kts | 142° |
| 2026-05-06 21:47 | 5.61601 | 100.30749 | 38814 ft | 491 kts | 142° |
| 2026-05-06 21:47 | 5.56152 | 100.34870 | 38796 ft | 490 kts | 142° |
| 2026-05-06 21:48 | 5.50741 | 100.38960 | 38796 ft | 490 kts | 142° |
| 2026-05-06 21:48 | 5.45291 | 100.43079 | 38795 ft | 490 kts | 142° |
| 2026-05-06 21:49 | 5.39845 | 100.47194 | 38796 ft | 490 kts | 142° |
| 2026-05-06 21:49 | 5.34394 | 100.51311 | 38799 ft | 490 kts | 142° |
| 2026-05-06 21:50 | 5.28977 | 100.55402 | 38805 ft | 491 kts | 142° |
| 2026-05-06 21:50 | 5.23523 | 100.59519 | 38837 ft | 490 kts | 142° |
| 2026-05-06 21:51 | 5.18081 | 100.63627 | 38833 ft | 489 kts | 142° |
| 2026-05-06 21:51 | 5.12681 | 100.67703 | 38816 ft | 488 kts | 142° |
| 2026-05-06 21:52 | 5.07264 | 100.71791 | 38803 ft | 487 kts | 142° |
| 2026-05-06 21:52 | 5.01848 | 100.75877 | 38814 ft | 486 kts | 142° |
| 2026-05-06 21:53 | 4.96445 | 100.79951 | 38817 ft | 486 kts | 142° |
| 2026-05-06 21:53 | 4.91076 | 100.84001 | 38809 ft | 486 kts | 142° |
| 2026-05-06 21:54 | 4.85678 | 100.88071 | 38820 ft | 486 kts | 142° |
| 2026-05-06 21:54 | 4.80261 | 100.92155 | 38807 ft | 487 kts | 142° |
| 2026-05-06 21:55 | 4.74839 | 100.96241 | 38805 ft | 488 kts | 142° |
| 2026-05-06 21:55 | 4.69401 | 101.00338 | 38806 ft | 489 kts | 142° |
| 2026-05-06 21:56 | 4.63994 | 101.04412 | 38798 ft | 490 kts | 142° |
| 2026-05-06 21:56 | 4.58291 | 101.08153 | 38797 ft | 491 kts | 151° |
| 2026-05-06 21:57 | 4.52043 | 101.10908 | 38801 ft | 492 kts | 160° |
| 2026-05-06 21:57 | 4.45479 | 101.12852 | 38835 ft | 491 kts | 163° |
| 2026-05-06 21:58 | 4.38965 | 101.14752 | 38836 ft | 490 kts | 163° |
| 2026-05-06 21:58 | 4.32425 | 101.16659 | 38825 ft | 489 kts | 163° |
| 2026-05-06 21:59 | 4.25902 | 101.18557 | 38817 ft | 488 kts | 163° |
| 2026-05-06 21:59 | 4.19391 | 101.20450 | 38826 ft | 487 kts | 163° |
| 2026-05-06 22:00 | 4.12929 | 101.22328 | 38813 ft | 486 kts | 163° |
| 2026-05-06 22:00 | 4.06428 | 101.24214 | 38815 ft | 486 kts | 163° |
| 2026-05-06 22:01 | 3.99924 | 101.26101 | 38805 ft | 487 kts | 163° |
| 2026-05-06 22:01 | 3.93421 | 101.27987 | 38806 ft | 487 kts | 163° |
| 2026-05-06 22:02 | 3.86951 | 101.29863 | 38814 ft | 487 kts | 163° |
| 2026-05-06 22:02 | 3.80431 | 101.31753 | 38819 ft | 488 kts | 162° |
| 2026-05-06 22:03 | 3.73910 | 101.33690 | 38819 ft | 489 kts | 162° |
| 2026-05-06 22:03 | 3.67392 | 101.35655 | 38823 ft | 490 kts | 162° |
| 2026-05-06 22:04 | 3.60901 | 101.37603 | 38821 ft | 490 kts | 162° |
| 2026-05-06 22:04 | 3.54363 | 101.39561 | 38813 ft | 491 kts | 162° |
| 2026-05-06 22:05 | 3.47824 | 101.41518 | 38814 ft | 491 kts | 162° |
| 2026-05-06 22:05 | 3.41283 | 101.43477 | 38809 ft | 491 kts | 162° |
| 2026-05-06 22:06 | 3.34793 | 101.45422 | 38798 ft | 490 kts | 162° |
| 2026-05-06 22:06 | 3.28469 | 101.47958 | 38797 ft | 490 kts | 154° |
| 2026-05-06 22:07 | 3.22284 | 101.50831 | 38796 ft | 490 kts | 154° |
| 2026-05-06 22:07 | 3.16085 | 101.53687 | 38800 ft | 491 kts | 154° |
| 2026-05-06 22:08 | 3.09922 | 101.56530 | 38800 ft | 491 kts | 154° |
| 2026-05-06 22:08 | 3.03720 | 101.59391 | 38804 ft | 491 kts | 154° |
| 2026-05-06 22:09 | 2.97549 | 101.62240 | 38803 ft | 491 kts | 155° |
| 2026-05-06 22:09 | 2.94423 | 101.63682 | 40275 ft | 497 kts | 155° |
| 2026-05-06 22:09 | 2.91276 | 101.65131 | 38335 ft | 495 kts | 154° |
| 2026-05-06 22:10 | 2.88169 | 101.66563 | 38460 ft | 492 kts | 154° |
| 2026-05-06 22:10 | 2.85045 | 101.68007 | 38701 ft | 495 kts | 154° |
| 2026-05-06 22:10 | 2.78842 | 101.70869 | 38800 ft | 492 kts | 154° |
| 2026-05-06 22:11 | 2.72635 | 101.73732 | 38801 ft | 492 kts | 154° |
| 2026-05-06 22:11 | 2.66462 | 101.76690 | 38802 ft | 492 kts | 153° |
| 2026-05-06 22:12 | 2.60325 | 101.79709 | 38803 ft | 491 kts | 152° |
| 2026-05-06 22:12 | 2.54640 | 101.83342 | 38798 ft | 488 kts | 140° |
| 2026-05-06 22:13 | 2.49849 | 101.88101 | 38791 ft | 486 kts | 128° |
| 2026-05-06 22:13 | 2.45801 | 101.93484 | 38800 ft | 484 kts | 126° |
| 2026-05-06 22:14 | 2.41776 | 101.98815 | 38789 ft | 483 kts | 127° |
| 2026-05-06 22:14 | 2.37733 | 102.04173 | 38785 ft | 482 kts | 127° |
| 2026-05-06 22:15 | 2.33693 | 102.09535 | 38783 ft | 483 kts | 127° |
| 2026-05-06 22:15 | 2.29673 | 102.14869 | 38618 ft | 479 kts | 127° |
| 2026-05-06 22:16 | 2.27670 | 102.17525 | 38033 ft | 478 kts | 127° |
| 2026-05-06 22:16 | 2.25692 | 102.20148 | 37276 ft | 479 kts | 126° |
| 2026-05-06 22:16 | 2.23682 | 102.22813 | 36443 ft | 481 kts | 126° |
| 2026-05-06 22:16 | 2.21673 | 102.25478 | 35998 ft | 478 kts | 126° |
| 2026-05-06 22:17 | 2.19667 | 102.28142 | 35854 ft | 484 kts | 126° |
| 2026-05-06 22:17 | 2.17694 | 102.30903 | 35828 ft | 490 kts | 124° |
| 2026-05-06 22:17 | 2.13847 | 102.36542 | 35623 ft | 492 kts | 123° |
| 2026-05-06 22:18 | 2.11918 | 102.39356 | 35193 ft | 489 kts | 123° |
| 2026-05-06 22:18 | 2.09990 | 102.42151 | 34802 ft | 488 kts | 124° |
| 2026-05-06 22:18 | 2.08081 | 102.44908 | 34410 ft | 489 kts | 124° |
| 2026-05-06 22:18 | 2.06139 | 102.47708 | 33995 ft | 489 kts | 124° |
| 2026-05-06 22:19 | 2.04206 | 102.50493 | 33561 ft | 486 kts | 124° |
| 2026-05-06 22:19 | 2.02283 | 102.53262 | 33112 ft | 483 kts | 124° |
| 2026-05-06 22:19 | 2.00377 | 102.56008 | 32674 ft | 479 kts | 124° |
| 2026-05-06 22:19 | 1.98483 | 102.58736 | 32226 ft | 475 kts | 124° |
| 2026-05-06 22:20 | 1.96611 | 102.61434 | 31797 ft | 471 kts | 124° |
| 2026-05-06 22:20 | 1.94773 | 102.64082 | 31386 ft | 468 kts | 124° |
| 2026-05-06 22:20 | 1.92925 | 102.66745 | 30947 ft | 465 kts | 124° |
| 2026-05-06 22:20 | 1.91087 | 102.69394 | 30482 ft | 462 kts | 124° |
| 2026-05-06 22:21 | 1.89263 | 102.72021 | 30045 ft | 458 kts | 124° |
| 2026-05-06 22:21 | 1.87455 | 102.74626 | 29530 ft | 454 kts | 124° |
| 2026-05-06 22:21 | 1.85662 | 102.77209 | 29011 ft | 450 kts | 124° |
| 2026-05-06 22:21 | 1.83883 | 102.79772 | 28499 ft | 447 kts | 124° |
| 2026-05-06 22:22 | 1.82120 | 102.82312 | 27994 ft | 443 kts | 124° |
| 2026-05-06 22:22 | 1.80391 | 102.84801 | 27522 ft | 440 kts | 124° |
| 2026-05-06 22:22 | 1.78655 | 102.87301 | 27024 ft | 437 kts | 124° |
| 2026-05-06 22:22 | 1.76930 | 102.89786 | 26548 ft | 433 kts | 124° |
| 2026-05-06 22:23 | 1.75226 | 102.92239 | 26064 ft | 426 kts | 124° |
| 2026-05-06 22:23 | 1.73557 | 102.94642 | 25491 ft | 416 kts | 123° |
| 2026-05-06 22:23 | 1.71940 | 102.96972 | 25243 ft | 398 kts | 123° |
| 2026-05-06 22:23 | 1.70392 | 102.99202 | 24887 ft | 384 kts | 123° |
| 2026-05-06 22:24 | 1.68892 | 103.01363 | 24466 ft | 373 kts | 123° |
| 2026-05-06 22:24 | 1.67248 | 103.03267 | 24176 ft | 366 kts | 139° |
| 2026-05-06 22:24 | 1.65212 | 103.04790 | 23874 ft | 366 kts | 142° |
| 2026-05-06 22:24 | 1.63166 | 103.06294 | 23539 ft | 363 kts | 141° |
| 2026-05-06 22:25 | 1.61144 | 103.07787 | 23146 ft | 361 kts | 141° |
| 2026-05-06 22:25 | 1.59130 | 103.09276 | 22730 ft | 358 kts | 141° |
| 2026-05-06 22:25 | 1.57136 | 103.10750 | 22340 ft | 356 kts | 141° |
| 2026-05-06 22:25 | 1.55154 | 103.12214 | 21936 ft | 353 kts | 142° |
| 2026-05-06 22:26 | 1.53183 | 103.13670 | 21544 ft | 351 kts | 142° |
| 2026-05-06 22:26 | 1.51250 | 103.15097 | 21151 ft | 349 kts | 142° |
| 2026-05-06 22:26 | 1.49299 | 103.16537 | 20724 ft | 349 kts | 142° |
| 2026-05-06 22:26 | 1.47346 | 103.17979 | 20262 ft | 349 kts | 142° |
| 2026-05-06 22:27 | 1.45392 | 103.19421 | 19797 ft | 350 kts | 142° |
| 2026-05-06 22:27 | 1.43437 | 103.20864 | 19343 ft | 350 kts | 142° |
| 2026-05-06 22:27 | 1.41482 | 103.22307 | 18903 ft | 349 kts | 142° |
| 2026-05-06 22:27 | 1.39532 | 103.23745 | 18496 ft | 347 kts | 142° |
| 2026-05-06 22:28 | 1.37617 | 103.25159 | 18109 ft | 346 kts | 142° |
| 2026-05-06 22:28 | 1.35690 | 103.26581 | 17657 ft | 344 kts | 142° |
| 2026-05-06 22:28 | 1.33768 | 103.27999 | 17204 ft | 342 kts | 142° |
| 2026-05-06 22:28 | 1.31862 | 103.29405 | 16717 ft | 339 kts | 142° |
| 2026-05-06 22:29 | 1.29982 | 103.30792 | 16234 ft | 331 kts | 142° |
| 2026-05-06 22:29 | 1.28152 | 103.32143 | 15805 ft | 323 kts | 142° |
| 2026-05-06 22:29 | 1.26359 | 103.33467 | 15378 ft | 319 kts | 142° |
| 2026-05-06 22:29 | 1.24580 | 103.34782 | 14962 ft | 317 kts | 142° |
| 2026-05-06 22:30 | 1.22814 | 103.36087 | 14543 ft | 315 kts | 142° |
| 2026-05-06 22:30 | 1.21079 | 103.37367 | 14144 ft | 313 kts | 142° |
| 2026-05-06 22:30 | 1.19333 | 103.38656 | 13744 ft | 311 kts | 141° |
| 2026-05-06 22:30 | 1.17600 | 103.39936 | 13299 ft | 309 kts | 142° |
| 2026-05-06 22:31 | 1.15878 | 103.41207 | 12849 ft | 307 kts | 142° |
| 2026-05-06 22:31 | 1.14170 | 103.42468 | 12416 ft | 305 kts | 142° |
| 2026-05-06 22:31 | 1.12476 | 103.43718 | 12019 ft | 300 kts | 142° |
| 2026-05-06 22:31 | 1.10826 | 103.44935 | 11621 ft | 290 kts | 142° |
| 2026-05-06 22:32 | 1.09246 | 103.46100 | 11246 ft | 281 kts | 142° |
| 2026-05-06 22:32 | 1.07716 | 103.47229 | 10874 ft | 267 kts | 142° |
| 2026-05-06 22:32 | 1.06251 | 103.48311 | 10680 ft | 252 kts | 142° |
| 2026-05-06 22:32 | 1.05062 | 103.49577 | 10416 ft | 251 kts | 122° |
| 2026-05-06 22:33 | 1.04473 | 103.51205 | 9998 ft | 251 kts | 98° |
| 2026-05-06 22:33 | 1.04553 | 103.52942 | 9585 ft | 251 kts | 82° |
| 2026-05-06 22:33 | 1.04819 | 103.54667 | 9183 ft | 251 kts | 83° |
| 2026-05-06 22:33 | 1.05053 | 103.56368 | 8840 ft | 251 kts | 83° |
| 2026-05-06 22:34 | 1.05208 | 103.57533 | 8603 ft | 250 kts | 83° |